sensor_id;sensor_type;location;lat;lon;timestamp;P1;durP1;ratioP1;P2;durP2;ratioP2
46613;SDS011;32338;50.430;6.806;2022-07-23T00:01:01;27.38;;;17.17;;
46613;SDS011;32338;50.430;6.806;2022-07-23T00:03:27;24.77;;;17.05;;
46613;SDS011;32338;50.430;6.806;2022-07-23T00:05:54;27.73;;;16.70;;
46613;SDS011;32338;50.430;6.806;2022-07-23T00:08:21;32.53;;;17.85;;
46613;SDS011;32338;50.430;6.806;2022-07-23T00:10:47;24.08;;;16.10;;
46613;SDS011;32338;50.430;6.806;2022-07-23T00:13:15;27.48;;;17.40;;
46613;SDS011;32338;50.430;6.806;2022-07-23T00:15:42;25.85;;;17.30;;
46613;SDS011;32338;50.430;6.806;2022-07-23T00:18:09;24.50;;;17.98;;
46613;SDS011;32338;50.430;6.806;2022-07-23T00:20:35;24.45;;;16.45;;
46613;SDS011;32338;50.430;6.806;2022-07-23T00:23:02;26.10;;;17.23;;
46613;SDS011;32338;50.430;6.806;2022-07-23T00:25:28;25.25;;;16.90;;
46613;SDS011;32338;50.430;6.806;2022-07-23T00:27:55;30.20;;;19.08;;
46613;SDS011;32338;50.430;6.806;2022-07-23T00:30:23;27.83;;;17.35;;
46613;SDS011;32338;50.430;6.806;2022-07-23T00:32:51;25.83;;;17.35;;
46613;SDS011;32338;50.430;6.806;2022-07-23T00:35:19;25.33;;;17.50;;
46613;SDS011;32338;50.430;6.806;2022-07-23T00:37:47;28.45;;;18.35;;
46613;SDS011;32338;50.430;6.806;2022-07-23T00:40:14;28.17;;;17.83;;
46613;SDS011;32338;50.430;6.806;2022-07-23T00:42:41;33.28;;;18.58;;
46613;SDS011;32338;50.430;6.806;2022-07-23T00:45:08;30.98;;;18.63;;
46613;SDS011;32338;50.430;6.806;2022-07-23T00:47:37;26.83;;;18.35;;
46613;SDS011;32338;50.430;6.806;2022-07-23T00:50:04;29.85;;;17.88;;
46613;SDS011;32338;50.430;6.806;2022-07-23T00:52:33;23.05;;;17.05;;
46613;SDS011;32338;50.430;6.806;2022-07-23T00:55:01;28.17;;;18.08;;
46613;SDS011;32338;50.430;6.806;2022-07-23T00:57:29;26.17;;;18.45;;
46613;SDS011;32338;50.430;6.806;2022-07-23T00:59:55;27.17;;;18.23;;
46613;SDS011;32338;50.430;6.806;2022-07-23T01:02:23;29.70;;;20.85;;
46613;SDS011;32338;50.430;6.806;2022-07-23T01:04:51;28.45;;;18.83;;
46613;SDS011;32338;50.430;6.806;2022-07-23T01:07:18;29.30;;;18.63;;
46613;SDS011;32338;50.430;6.806;2022-07-23T01:09:45;26.55;;;18.45;;
46613;SDS011;32338;50.430;6.806;2022-07-23T01:12:12;23.48;;;17.75;;
46613;SDS011;32338;50.430;6.806;2022-07-23T01:14:39;29.10;;;19.58;;
46613;SDS011;32338;50.430;6.806;2022-07-23T01:17:06;38.42;;;22.95;;
46613;SDS011;32338;50.430;6.806;2022-07-23T01:19:32;32.70;;;22.83;;
46613;SDS011;32338;50.430;6.806;2022-07-23T01:22:01;32.25;;;21.25;;
46613;SDS011;32338;50.430;6.806;2022-07-23T01:24:30;28.02;;;18.63;;
46613;SDS011;32338;50.430;6.806;2022-07-23T01:26:57;31.92;;;20.27;;
46613;SDS011;32338;50.430;6.806;2022-07-23T01:29:23;34.85;;;21.80;;
46613;SDS011;32338;50.430;6.806;2022-07-23T01:31:50;27.30;;;18.83;;
46613;SDS011;32338;50.430;6.806;2022-07-23T01:34:17;39.08;;;23.08;;
46613;SDS011;32338;50.430;6.806;2022-07-23T01:36:43;33.20;;;21.42;;
46613;SDS011;32338;50.430;6.806;2022-07-23T01:39:10;37.35;;;22.23;;
46613;SDS011;32338;50.430;6.806;2022-07-23T01:41:38;30.88;;;20.08;;
46613;SDS011;32338;50.430;6.806;2022-07-23T01:44:05;35.58;;;20.65;;
46613;SDS011;32338;50.430;6.806;2022-07-23T01:46:41;32.58;;;20.80;;
46613;SDS011;32338;50.430;6.806;2022-07-23T01:51:35;35.78;;;22.17;;
46613;SDS011;32338;50.430;6.806;2022-07-23T01:54:01;36.70;;;23.02;;
46613;SDS011;32338;50.430;6.806;2022-07-23T01:56:28;41.28;;;23.55;;
46613;SDS011;32338;50.430;6.806;2022-07-23T01:58:56;41.22;;;25.27;;
46613;SDS011;32338;50.430;6.806;2022-07-23T02:01:23;42.28;;;25.00;;
46613;SDS011;32338;50.430;6.806;2022-07-23T02:03:50;44.53;;;26.00;;
46613;SDS011;32338;50.430;6.806;2022-07-23T02:06:16;45.08;;;25.35;;
46613;SDS011;32338;50.430;6.806;2022-07-23T02:08:43;41.53;;;24.65;;
46613;SDS011;32338;50.430;6.806;2022-07-23T02:11:10;44.40;;;27.02;;
46613;SDS011;32338;50.430;6.806;2022-07-23T02:13:36;38.47;;;23.48;;
46613;SDS011;32338;50.430;6.806;2022-07-23T02:16:04;38.10;;;23.05;;
46613;SDS011;32338;50.430;6.806;2022-07-23T02:18:31;44.83;;;26.13;;
46613;SDS011;32338;50.430;6.806;2022-07-23T02:20:58;38.55;;;24.77;;
46613;SDS011;32338;50.430;6.806;2022-07-23T02:23:25;38.15;;;25.15;;
46613;SDS011;32338;50.430;6.806;2022-07-23T02:25:51;41.90;;;25.77;;
46613;SDS011;32338;50.430;6.806;2022-07-23T02:28:18;39.33;;;24.35;;
46613;SDS011;32338;50.430;6.806;2022-07-23T02:30:44;38.47;;;23.27;;
46613;SDS011;32338;50.430;6.806;2022-07-23T02:33:13;38.75;;;24.58;;
46613;SDS011;32338;50.430;6.806;2022-07-23T02:35:39;34.70;;;21.85;;
46613;SDS011;32338;50.430;6.806;2022-07-23T02:38:06;41.72;;;23.60;;
46613;SDS011;32338;50.430;6.806;2022-07-23T02:40:33;39.15;;;24.63;;
46613;SDS011;32338;50.430;6.806;2022-07-23T02:42:59;39.67;;;25.63;;
46613;SDS011;32338;50.430;6.806;2022-07-23T02:45:26;50.83;;;25.88;;
46613;SDS011;32338;50.430;6.806;2022-07-23T02:47:53;37.90;;;23.70;;
46613;SDS011;32338;50.430;6.806;2022-07-23T02:50:21;42.65;;;26.10;;
46613;SDS011;32338;50.430;6.806;2022-07-23T02:52:47;45.38;;;24.75;;
46613;SDS011;32338;50.430;6.806;2022-07-23T02:55:14;42.25;;;26.63;;
46613;SDS011;32338;50.430;6.806;2022-07-23T02:57:41;42.53;;;26.65;;
46613;SDS011;32338;50.430;6.806;2022-07-23T03:00:08;36.92;;;23.10;;
46613;SDS011;32338;50.430;6.806;2022-07-23T03:02:35;35.53;;;24.15;;
46613;SDS011;32338;50.430;6.806;2022-07-23T03:05:02;36.08;;;23.73;;
46613;SDS011;32338;50.430;6.806;2022-07-23T03:07:31;42.30;;;25.00;;
46613;SDS011;32338;50.430;6.806;2022-07-23T03:09:57;35.03;;;23.95;;
46613;SDS011;32338;50.430;6.806;2022-07-23T03:12:24;40.63;;;23.70;;
46613;SDS011;32338;50.430;6.806;2022-07-23T03:14:51;45.30;;;26.42;;
46613;SDS011;32338;50.430;6.806;2022-07-23T03:17:17;46.00;;;26.50;;
46613;SDS011;32338;50.430;6.806;2022-07-23T03:19:44;48.28;;;27.20;;
46613;SDS011;32338;50.430;6.806;2022-07-23T03:22:11;42.30;;;27.50;;
46613;SDS011;32338;50.430;6.806;2022-07-23T03:24:39;50.30;;;28.52;;
46613;SDS011;32338;50.430;6.806;2022-07-23T03:27:21;52.40;;;31.67;;
46613;SDS011;32338;50.430;6.806;2022-07-23T03:29:48;56.90;;;29.70;;
46613;SDS011;32338;50.430;6.806;2022-07-23T03:32:15;52.00;;;31.50;;
46613;SDS011;32338;50.430;6.806;2022-07-23T03:34:42;59.13;;;34.10;;
46613;SDS011;32338;50.430;6.806;2022-07-23T03:37:09;64.00;;;35.47;;
46613;SDS011;32338;50.430;6.806;2022-07-23T03:39:36;58.13;;;34.65;;
46613;SDS011;32338;50.430;6.806;2022-07-23T03:42:04;66.78;;;37.15;;
46613;SDS011;32338;50.430;6.806;2022-07-23T03:44:30;66.95;;;37.47;;
46613;SDS011;32338;50.430;6.806;2022-07-23T03:46:57;66.00;;;36.45;;
46613;SDS011;32338;50.430;6.806;2022-07-23T03:49:24;62.55;;;35.83;;
46613;SDS011;32338;50.430;6.806;2022-07-23T03:51:50;58.42;;;34.72;;
46613;SDS011;32338;50.430;6.806;2022-07-23T03:54:17;61.50;;;34.88;;
46613;SDS011;32338;50.430;6.806;2022-07-23T03:56:44;56.22;;;32.97;;
46613;SDS011;32338;50.430;6.806;2022-07-23T03:59:12;53.70;;;31.90;;
46613;SDS011;32338;50.430;6.806;2022-07-23T04:01:39;54.55;;;30.23;;
46613;SDS011;32338;50.430;6.806;2022-07-23T04:04:06;56.33;;;30.52;;
46613;SDS011;32338;50.430;6.806;2022-07-23T04:06:33;49.40;;;30.33;;
46613;SDS011;32338;50.430;6.806;2022-07-23T04:09:00;42.90;;;27.90;;
46613;SDS011;32338;50.430;6.806;2022-07-23T04:11:26;38.47;;;24.98;;
46613;SDS011;32338;50.430;6.806;2022-07-23T04:13:53;45.70;;;28.92;;
46613;SDS011;32338;50.430;6.806;2022-07-23T04:16:21;44.88;;;26.17;;
46613;SDS011;32338;50.430;6.806;2022-07-23T04:18:48;38.63;;;24.83;;
46613;SDS011;32338;50.430;6.806;2022-07-23T04:21:14;44.53;;;25.98;;
46613;SDS011;32338;50.430;6.806;2022-07-23T04:23:41;42.30;;;25.25;;
46613;SDS011;32338;50.430;6.806;2022-07-23T04:26:08;46.05;;;25.83;;
46613;SDS011;32338;50.430;6.806;2022-07-23T04:28:34;38.20;;;25.08;;
46613;SDS011;32338;50.430;6.806;2022-07-23T04:31:01;41.60;;;26.42;;
46613;SDS011;32338;50.430;6.806;2022-07-23T04:33:29;42.75;;;26.02;;
46613;SDS011;32338;50.430;6.806;2022-07-23T04:35:56;42.13;;;26.05;;
46613;SDS011;32338;50.430;6.806;2022-07-23T04:38:22;39.47;;;24.35;;
46613;SDS011;32338;50.430;6.806;2022-07-23T04:40:49;35.42;;;23.42;;
46613;SDS011;32338;50.430;6.806;2022-07-23T04:43:16;34.97;;;22.30;;
46613;SDS011;32338;50.430;6.806;2022-07-23T04:45:42;38.45;;;23.52;;
46613;SDS011;32338;50.430;6.806;2022-07-23T04:48:09;37.72;;;23.85;;
46613;SDS011;32338;50.430;6.806;2022-07-23T04:50:37;34.97;;;24.23;;
46613;SDS011;32338;50.430;6.806;2022-07-23T04:53:04;39.25;;;25.30;;
46613;SDS011;32338;50.430;6.806;2022-07-23T04:55:31;39.42;;;24.83;;
46613;SDS011;32338;50.430;6.806;2022-07-23T04:57:57;39.22;;;24.48;;
46613;SDS011;32338;50.430;6.806;2022-07-23T05:00:24;37.45;;;24.50;;
46613;SDS011;32338;50.430;6.806;2022-07-23T05:02:51;35.40;;;24.52;;
46613;SDS011;32338;50.430;6.806;2022-07-23T05:05:17;32.97;;;21.95;;
46613;SDS011;32338;50.430;6.806;2022-07-23T05:07:45;38.55;;;24.52;;
46613;SDS011;32338;50.430;6.806;2022-07-23T05:10:12;38.22;;;25.17;;
46613;SDS011;32338;50.430;6.806;2022-07-23T05:12:38;36.85;;;23.02;;
46613;SDS011;32338;50.430;6.806;2022-07-23T05:15:05;37.65;;;24.58;;
46613;SDS011;32338;50.430;6.806;2022-07-23T05:17:32;40.95;;;24.73;;
46613;SDS011;32338;50.430;6.806;2022-07-23T05:19:59;36.00;;;24.15;;
46613;SDS011;32338;50.430;6.806;2022-07-23T05:22:26;42.85;;;26.05;;
46613;SDS011;32338;50.430;6.806;2022-07-23T05:24:54;33.75;;;25.02;;
46613;SDS011;32338;50.430;6.806;2022-07-23T05:27:20;39.75;;;25.17;;
46613;SDS011;32338;50.430;6.806;2022-07-23T05:29:47;36.47;;;24.73;;
46613;SDS011;32338;50.430;6.806;2022-07-23T05:32:14;33.55;;;24.95;;
46613;SDS011;32338;50.430;6.806;2022-07-23T05:34:40;30.80;;;22.55;;
46613;SDS011;32338;50.430;6.806;2022-07-23T05:37:07;35.83;;;23.33;;
46613;SDS011;32338;50.430;6.806;2022-07-23T05:39:33;39.53;;;26.42;;
46613;SDS011;32338;50.430;6.806;2022-07-23T05:42:02;38.55;;;23.60;;
46613;SDS011;32338;50.430;6.806;2022-07-23T05:44:28;38.47;;;26.00;;
46613;SDS011;32338;50.430;6.806;2022-07-23T05:46:55;37.22;;;23.67;;
46613;SDS011;32338;50.430;6.806;2022-07-23T05:49:22;39.42;;;24.35;;
46613;SDS011;32338;50.430;6.806;2022-07-23T05:51:49;32.20;;;24.25;;
46613;SDS011;32338;50.430;6.806;2022-07-23T05:54:16;39.65;;;25.00;;
46613;SDS011;32338;50.430;6.806;2022-07-23T05:56:43;37.42;;;23.52;;
46613;SDS011;32338;50.430;6.806;2022-07-23T05:59:11;40.95;;;23.50;;
46613;SDS011;32338;50.430;6.806;2022-07-23T06:01:39;34.75;;;23.27;;
46613;SDS011;32338;50.430;6.806;2022-07-23T06:04:06;37.45;;;23.52;;
46613;SDS011;32338;50.430;6.806;2022-07-23T06:06:33;30.67;;;22.08;;
46613;SDS011;32338;50.430;6.806;2022-07-23T06:08:59;35.17;;;23.52;;
46613;SDS011;32338;50.430;6.806;2022-07-23T06:11:26;39.13;;;24.55;;
46613;SDS011;32338;50.430;6.806;2022-07-23T06:13:53;36.75;;;23.75;;
46613;SDS011;32338;50.430;6.806;2022-07-23T06:16:21;42.08;;;24.50;;
46613;SDS011;32338;50.430;6.806;2022-07-23T06:18:47;39.97;;;23.10;;
46613;SDS011;32338;50.430;6.806;2022-07-23T06:21:14;36.78;;;22.75;;
46613;SDS011;32338;50.430;6.806;2022-07-23T06:23:41;35.00;;;21.63;;
46613;SDS011;32338;50.430;6.806;2022-07-23T06:26:07;37.72;;;19.80;;
46613;SDS011;32338;50.430;6.806;2022-07-23T06:28:34;33.53;;;21.13;;
46613;SDS011;32338;50.430;6.806;2022-07-23T06:31:00;33.13;;;21.67;;
46613;SDS011;32338;50.430;6.806;2022-07-23T06:33:29;34.00;;;22.23;;
46613;SDS011;32338;50.430;6.806;2022-07-23T06:35:55;30.10;;;20.17;;
46613;SDS011;32338;50.430;6.806;2022-07-23T06:38:22;28.15;;;18.98;;
46613;SDS011;32338;50.430;6.806;2022-07-23T06:40:48;36.33;;;20.48;;
46613;SDS011;32338;50.430;6.806;2022-07-23T06:43:15;31.80;;;21.92;;
46613;SDS011;32338;50.430;6.806;2022-07-23T06:45:42;27.92;;;20.00;;
46613;SDS011;32338;50.430;6.806;2022-07-23T06:48:09;25.20;;;17.80;;
46613;SDS011;32338;50.430;6.806;2022-07-23T06:50:37;22.70;;;18.38;;
46613;SDS011;32338;50.430;6.806;2022-07-23T06:53:03;23.42;;;16.60;;
46613;SDS011;32338;50.430;6.806;2022-07-23T06:55:30;23.90;;;16.67;;
46613;SDS011;32338;50.430;6.806;2022-07-23T06:57:56;20.30;;;15.77;;
46613;SDS011;32338;50.430;6.806;2022-07-23T07:00:23;23.55;;;14.95;;
46613;SDS011;32338;50.430;6.806;2022-07-23T07:02:53;20.50;;;13.50;;
46613;SDS011;32338;50.430;6.806;2022-07-23T07:05:20;22.85;;;12.95;;
46613;SDS011;32338;50.430;6.806;2022-07-23T07:07:48;17.48;;;12.20;;
46613;SDS011;32338;50.430;6.806;2022-07-23T07:10:14;18.92;;;12.65;;
46613;SDS011;32338;50.430;6.806;2022-07-23T07:12:42;15.15;;;10.32;;
46613;SDS011;32338;50.430;6.806;2022-07-23T07:15:09;15.73;;;12.35;;
46613;SDS011;32338;50.430;6.806;2022-07-23T07:17:36;23.98;;;12.18;;
46613;SDS011;32338;50.430;6.806;2022-07-23T07:20:03;14.55;;;10.45;;
46613;SDS011;32338;50.430;6.806;2022-07-23T07:22:31;18.88;;;10.65;;
46613;SDS011;32338;50.430;6.806;2022-07-23T07:24:59;17.30;;;11.07;;
46613;SDS011;32338;50.430;6.806;2022-07-23T07:27:25;14.45;;;11.27;;
46613;SDS011;32338;50.430;6.806;2022-07-23T07:29:52;16.50;;;11.82;;
46613;SDS011;32338;50.430;6.806;2022-07-23T07:32:19;17.13;;;10.85;;
46613;SDS011;32338;50.430;6.806;2022-07-23T07:34:45;17.75;;;11.68;;
46613;SDS011;32338;50.430;6.806;2022-07-23T07:37:12;18.63;;;11.48;;
46613;SDS011;32338;50.430;6.806;2022-07-23T07:39:39;16.20;;;11.40;;
46613;SDS011;32338;50.430;6.806;2022-07-23T07:42:07;17.10;;;10.20;;
46613;SDS011;32338;50.430;6.806;2022-07-23T07:44:33;9.60;;;8.63;;
46613;SDS011;32338;50.430;6.806;2022-07-23T07:47:00;11.90;;;8.93;;
46613;SDS011;32338;50.430;6.806;2022-07-23T07:49:27;12.60;;;7.95;;
46613;SDS011;32338;50.430;6.806;2022-07-23T07:51:53;10.60;;;8.23;;
46613;SDS011;32338;50.430;6.806;2022-07-23T07:54:20;11.98;;;8.63;;
46613;SDS011;32338;50.430;6.806;2022-07-23T07:56:47;10.30;;;7.88;;
46613;SDS011;32338;50.430;6.806;2022-07-23T07:59:15;10.20;;;7.20;;
46613;SDS011;32338;50.430;6.806;2022-07-23T08:01:41;11.35;;;8.32;;
46613;SDS011;32338;50.430;6.806;2022-07-23T08:04:08;10.43;;;6.95;;
46613;SDS011;32338;50.430;6.806;2022-07-23T08:06:35;9.70;;;7.75;;
46613;SDS011;32338;50.430;6.806;2022-07-23T08:09:01;10.73;;;7.32;;
46613;SDS011;32338;50.430;6.806;2022-07-23T08:11:28;9.13;;;7.00;;
46613;SDS011;32338;50.430;6.806;2022-07-23T08:13:55;10.60;;;6.70;;
46613;SDS011;32338;50.430;6.806;2022-07-23T08:16:23;10.32;;;7.70;;
46613;SDS011;32338;50.430;6.806;2022-07-23T08:18:49;11.43;;;8.05;;
46613;SDS011;32338;50.430;6.806;2022-07-23T08:21:16;9.10;;;8.23;;
46613;SDS011;32338;50.430;6.806;2022-07-23T08:23:43;10.40;;;7.43;;
46613;SDS011;32338;50.430;6.806;2022-07-23T08:26:10;11.23;;;6.93;;
46613;SDS011;32338;50.430;6.806;2022-07-23T08:28:37;9.93;;;7.03;;
46613;SDS011;32338;50.430;6.806;2022-07-23T08:31:04;10.60;;;8.02;;
46613;SDS011;32338;50.430;6.806;2022-07-23T08:33:33;9.32;;;6.53;;
46613;SDS011;32338;50.430;6.806;2022-07-23T08:36:00;9.20;;;6.05;;
46613;SDS011;32338;50.430;6.806;2022-07-23T08:38:28;10.32;;;6.40;;
46613;SDS011;32338;50.430;6.806;2022-07-23T08:40:55;12.65;;;7.32;;
46613;SDS011;32338;50.430;6.806;2022-07-23T08:43:23;8.73;;;5.82;;
46613;SDS011;32338;50.430;6.806;2022-07-23T08:45:52;9.82;;;6.35;;
46613;SDS011;32338;50.430;6.806;2022-07-23T08:48:23;7.90;;;5.82;;
46613;SDS011;32338;50.430;6.806;2022-07-23T08:50:53;9.38;;;6.35;;
46613;SDS011;32338;50.430;6.806;2022-07-23T08:53:21;8.20;;;5.53;;
46613;SDS011;32338;50.430;6.806;2022-07-23T08:55:50;9.65;;;5.53;;
46613;SDS011;32338;50.430;6.806;2022-07-23T08:58:18;6.45;;;5.18;;
46613;SDS011;32338;50.430;6.806;2022-07-23T09:00:46;7.93;;;5.53;;
46613;SDS011;32338;50.430;6.806;2022-07-23T09:03:14;10.30;;;6.72;;
46613;SDS011;32338;50.430;6.806;2022-07-23T09:05:43;6.97;;;4.97;;
46613;SDS011;32338;50.430;6.806;2022-07-23T09:08:12;6.95;;;5.10;;
46613;SDS011;32338;50.430;6.806;2022-07-23T09:10:48;5.70;;;5.13;;
46613;SDS011;32338;50.430;6.806;2022-07-23T09:13:26;6.97;;;5.80;;
46613;SDS011;32338;50.430;6.806;2022-07-23T09:15:57;10.35;;;5.50;;
46613;SDS011;32338;50.430;6.806;2022-07-23T09:18:28;6.28;;;4.80;;
46613;SDS011;32338;50.430;6.806;2022-07-23T09:21:08;5.05;;;4.60;;
46613;SDS011;32338;50.430;6.806;2022-07-23T09:23:42;6.43;;;4.85;;
46613;SDS011;32338;50.430;6.806;2022-07-23T09:26:23;9.60;;;4.80;;
46613;SDS011;32338;50.430;6.806;2022-07-23T09:28:59;7.05;;;5.10;;
46613;SDS011;32338;50.430;6.806;2022-07-23T09:31:31;6.70;;;5.57;;
46613;SDS011;32338;50.430;6.806;2022-07-23T09:34:08;9.20;;;4.90;;
46613;SDS011;32338;50.430;6.806;2022-07-23T09:36:36;8.95;;;4.15;;
46613;SDS011;32338;50.430;6.806;2022-07-23T09:39:04;5.93;;;4.35;;
46613;SDS011;32338;50.430;6.806;2022-07-23T09:41:35;4.53;;;3.95;;
46613;SDS011;32338;50.430;6.806;2022-07-23T09:44:08;5.40;;;3.90;;
46613;SDS011;32338;50.430;6.806;2022-07-23T09:46:39;5.00;;;4.57;;
46613;SDS011;32338;50.430;6.806;2022-07-23T09:49:10;4.78;;;3.70;;
46613;SDS011;32338;50.430;6.806;2022-07-23T09:51:46;4.65;;;4.22;;
46613;SDS011;32338;50.430;6.806;2022-07-23T09:54:24;6.07;;;4.07;;
46613;SDS011;32338;50.430;6.806;2022-07-23T09:56:54;4.13;;;3.28;;
46613;SDS011;32338;50.430;6.806;2022-07-23T09:59:22;6.18;;;3.90;;
46613;SDS011;32338;50.430;6.806;2022-07-23T10:01:52;5.13;;;3.92;;
46613;SDS011;32338;50.430;6.806;2022-07-23T10:04:21;3.50;;;3.20;;
46613;SDS011;32338;50.430;6.806;2022-07-23T10:06:49;7.05;;;3.20;;
46613;SDS011;32338;50.430;6.806;2022-07-23T10:09:18;4.47;;;3.20;;
46613;SDS011;32338;50.430;6.806;2022-07-23T10:11:51;5.10;;;3.40;;
46613;SDS011;32338;50.430;6.806;2022-07-23T10:14:22;5.18;;;3.55;;
46613;SDS011;32338;50.430;6.806;2022-07-23T10:16:49;4.50;;;4.10;;
46613;SDS011;32338;50.430;6.806;2022-07-23T10:19:16;4.35;;;3.28;;
46613;SDS011;32338;50.430;6.806;2022-07-23T10:21:45;5.05;;;4.60;;
46613;SDS011;32338;50.430;6.806;2022-07-23T10:24:20;5.63;;;3.90;;
46613;SDS011;32338;50.430;6.806;2022-07-23T10:26:58;4.78;;;3.92;;
46613;SDS011;32338;50.430;6.806;2022-07-23T10:29:36;7.35;;;3.95;;
46613;SDS011;32338;50.430;6.806;2022-07-23T10:32:13;4.78;;;3.80;;
46613;SDS011;32338;50.430;6.806;2022-07-23T10:34:50;4.70;;;3.47;;
46613;SDS011;32338;50.430;6.806;2022-07-23T10:37:22;6.78;;;3.70;;
46613;SDS011;32338;50.430;6.806;2022-07-23T10:40:09;5.50;;;3.53;;
46613;SDS011;32338;50.430;6.806;2022-07-23T10:42:37;5.30;;;4.78;;
46613;SDS011;32338;50.430;6.806;2022-07-23T10:47:50;6.20;;;4.07;;
46613;SDS011;32338;50.430;6.806;2022-07-23T10:50:21;5.65;;;3.60;;
46613;SDS011;32338;50.430;6.806;2022-07-23T10:53:07;4.47;;;3.40;;
46613;SDS011;32338;50.430;6.806;2022-07-23T10:55:46;6.28;;;4.20;;
46613;SDS011;32338;50.430;6.806;2022-07-23T10:58:17;5.40;;;4.00;;
46613;SDS011;32338;50.430;6.806;2022-07-23T11:00:46;4.63;;;3.70;;
46613;SDS011;32338;50.430;6.806;2022-07-23T11:03:28;4.25;;;3.90;;
46613;SDS011;32338;50.430;6.806;2022-07-23T11:06:00;6.20;;;3.88;;
46613;SDS011;32338;50.430;6.806;2022-07-23T11:08:27;4.15;;;3.80;;
46613;SDS011;32338;50.430;6.806;2022-07-23T11:11:07;5.75;;;3.95;;
46613;SDS011;32338;50.430;6.806;2022-07-23T11:13:36;6.28;;;3.38;;
46613;SDS011;32338;50.430;6.806;2022-07-23T11:16:06;7.28;;;4.03;;
46613;SDS011;32338;50.430;6.806;2022-07-23T11:21:48;4.82;;;3.28;;
46613;SDS011;32338;50.430;6.806;2022-07-23T11:24:17;5.72;;;2.85;;
46613;SDS011;32338;50.430;6.806;2022-07-23T11:26:47;6.88;;;3.60;;
46613;SDS011;32338;50.430;6.806;2022-07-23T11:29:42;4.55;;;3.40;;
46613;SDS011;32338;50.430;6.806;2022-07-23T11:32:19;3.70;;;2.92;;
46613;SDS011;32338;50.430;6.806;2022-07-23T11:34:50;8.43;;;3.03;;
46613;SDS011;32338;50.430;6.806;2022-07-23T11:37:34;6.05;;;3.67;;
46613;SDS011;32338;50.430;6.806;2022-07-23T11:40:04;4.18;;;3.72;;
46613;SDS011;32338;50.430;6.806;2022-07-23T11:42:37;3.70;;;3.10;;
46613;SDS011;32338;50.430;6.806;2022-07-23T11:45:05;5.05;;;3.25;;
46613;SDS011;32338;50.430;6.806;2022-07-23T11:47:34;4.03;;;3.40;;
46613;SDS011;32338;50.430;6.806;2022-07-23T11:50:02;3.97;;;3.60;;
46613;SDS011;32338;50.430;6.806;2022-07-23T11:52:31;4.03;;;3.55;;
46613;SDS011;32338;50.430;6.806;2022-07-23T11:54:58;4.53;;;3.15;;
46613;SDS011;32338;50.430;6.806;2022-07-23T11:57:27;4.85;;;3.70;;
46613;SDS011;32338;50.430;6.806;2022-07-23T11:59:57;4.90;;;3.03;;
46613;SDS011;32338;50.430;6.806;2022-07-23T12:02:27;5.40;;;3.75;;
46613;SDS011;32338;50.430;6.806;2022-07-23T12:04:54;5.10;;;3.60;;
46613;SDS011;32338;50.430;6.806;2022-07-23T12:07:24;3.78;;;3.47;;
46613;SDS011;32338;50.430;6.806;2022-07-23T12:09:56;3.45;;;3.17;;
46613;SDS011;32338;50.430;6.806;2022-07-23T12:12:24;3.92;;;3.17;;
46613;SDS011;32338;50.430;6.806;2022-07-23T12:14:51;3.35;;;3.05;;
46613;SDS011;32338;50.430;6.806;2022-07-23T12:17:21;3.42;;;2.95;;
46613;SDS011;32338;50.430;6.806;2022-07-23T12:19:54;3.60;;;3.30;;
46613;SDS011;32338;50.430;6.806;2022-07-23T12:22:26;4.93;;;3.60;;
46613;SDS011;32338;50.430;6.806;2022-07-23T12:27:29;5.20;;;3.13;;
46613;SDS011;32338;50.430;6.806;2022-07-23T12:29:56;3.13;;;2.83;;
46613;SDS011;32338;50.430;6.806;2022-07-23T12:32:25;3.33;;;3.08;;
46613;SDS011;32338;50.430;6.806;2022-07-23T12:35:02;4.82;;;3.08;;
46613;SDS011;32338;50.430;6.806;2022-07-23T12:37:32;3.08;;;2.88;;
46613;SDS011;32338;50.430;6.806;2022-07-23T12:42:53;3.58;;;3.22;;
46613;SDS011;32338;50.430;6.806;2022-07-23T12:45:21;4.05;;;3.08;;
46613;SDS011;32338;50.430;6.806;2022-07-23T12:47:57;3.20;;;2.90;;
46613;SDS011;32338;50.430;6.806;2022-07-23T12:50:30;3.15;;;2.88;;
46613;SDS011;32338;50.430;6.806;2022-07-23T12:53:02;3.28;;;2.58;;
46613;SDS011;32338;50.430;6.806;2022-07-23T12:55:29;3.50;;;3.20;;
46613;SDS011;32338;50.430;6.806;2022-07-23T12:58:02;3.92;;;3.08;;
46613;SDS011;32338;50.430;6.806;2022-07-23T13:00:31;3.90;;;3.03;;
46613;SDS011;32338;50.430;6.806;2022-07-23T13:02:59;2.70;;;2.50;;
46613;SDS011;32338;50.430;6.806;2022-07-23T13:05:26;3.72;;;2.67;;
46613;SDS011;32338;50.430;6.806;2022-07-23T13:07:53;3.25;;;2.95;;
46613;SDS011;32338;50.430;6.806;2022-07-23T13:10:19;3.13;;;2.75;;
46613;SDS011;32338;50.430;6.806;2022-07-23T13:12:46;3.67;;;2.67;;
46613;SDS011;32338;50.430;6.806;2022-07-23T13:15:13;3.10;;;2.80;;
46613;SDS011;32338;50.430;6.806;2022-07-23T13:17:39;3.40;;;3.10;;
46613;SDS011;32338;50.430;6.806;2022-07-23T13:20:11;2.95;;;2.50;;
46613;SDS011;32338;50.430;6.806;2022-07-23T13:22:38;2.80;;;2.60;;
46613;SDS011;32338;50.430;6.806;2022-07-23T13:25:05;3.30;;;3.00;;
46613;SDS011;32338;50.430;6.806;2022-07-23T13:27:32;4.55;;;3.30;;
46613;SDS011;32338;50.430;6.806;2022-07-23T13:29:59;3.13;;;2.60;;
46613;SDS011;32338;50.430;6.806;2022-07-23T13:32:26;2.75;;;2.40;;
46613;SDS011;32338;50.430;6.806;2022-07-23T13:34:52;3.05;;;2.85;;
46613;SDS011;32338;50.430;6.806;2022-07-23T13:37:20;4.70;;;2.70;;
46613;SDS011;32338;50.430;6.806;2022-07-23T13:39:47;3.70;;;2.92;;
46613;SDS011;32338;50.430;6.806;2022-07-23T13:42:14;3.35;;;3.05;;
46613;SDS011;32338;50.430;6.806;2022-07-23T13:44:41;3.90;;;2.60;;
46613;SDS011;32338;50.430;6.806;2022-07-23T13:47:07;4.13;;;2.88;;
46613;SDS011;32338;50.430;6.806;2022-07-23T13:49:34;5.47;;;2.72;;
46613;SDS011;32338;50.430;6.806;2022-07-23T13:52:01;2.97;;;2.67;;
46613;SDS011;32338;50.430;6.806;2022-07-23T13:54:31;3.25;;;2.88;;
46613;SDS011;32338;50.430;6.806;2022-07-23T13:56:58;4.60;;;2.92;;
46613;SDS011;32338;50.430;6.806;2022-07-23T13:59:25;3.53;;;2.90;;
46613;SDS011;32338;50.430;6.806;2022-07-23T14:01:51;3.67;;;2.47;;
46613;SDS011;32338;50.430;6.806;2022-07-23T14:04:18;2.72;;;2.50;;
46613;SDS011;32338;50.430;6.806;2022-07-23T14:06:45;2.90;;;2.70;;
46613;SDS011;32338;50.430;6.806;2022-07-23T14:09:11;3.65;;;2.95;;
46613;SDS011;32338;50.430;6.806;2022-07-23T14:11:40;3.20;;;2.97;;
46613;SDS011;32338;50.430;6.806;2022-07-23T14:14:06;3.80;;;3.50;;
46613;SDS011;32338;50.430;6.806;2022-07-23T14:16:33;3.05;;;2.80;;
46613;SDS011;32338;50.430;6.806;2022-07-23T14:19:00;4.63;;;3.42;;
46613;SDS011;32338;50.430;6.806;2022-07-23T14:21:27;5.55;;;2.72;;
46613;SDS011;32338;50.430;6.806;2022-07-23T14:23:54;3.90;;;3.50;;
46613;SDS011;32338;50.430;6.806;2022-07-23T14:26:20;3.10;;;2.78;;
46613;SDS011;32338;50.430;6.806;2022-07-23T14:28:48;3.22;;;2.67;;
46613;SDS011;32338;50.430;6.806;2022-07-23T14:31:15;2.72;;;2.53;;
46613;SDS011;32338;50.430;6.806;2022-07-23T14:33:42;3.15;;;2.95;;
46613;SDS011;32338;50.430;6.806;2022-07-23T14:36:08;3.53;;;2.95;;
46613;SDS011;32338;50.430;6.806;2022-07-23T14:38:35;3.08;;;2.65;;
46613;SDS011;32338;50.430;6.806;2022-07-23T14:41:02;4.75;;;2.33;;
46613;SDS011;32338;50.430;6.806;2022-07-23T14:43:31;3.58;;;2.83;;
46613;SDS011;32338;50.430;6.806;2022-07-23T14:45:59;3.10;;;2.58;;
46613;SDS011;32338;50.430;6.806;2022-07-23T14:48:26;4.60;;;2.90;;
46613;SDS011;32338;50.430;6.806;2022-07-23T14:50:53;3.30;;;2.38;;
46613;SDS011;32338;50.430;6.806;2022-07-23T14:53:19;2.92;;;2.50;;